Time;durP1;ratioP1;P1;durP2;ratioP2;P2;SDS_P1;SDS_P2;PMS_P1;PMS_P2;Temp;Humidity;BMP_temperature;BMP_pressure;BME280_temperature;BME280_humidity;BME280_pressure;Samples;Min_cycle;Max_cycle;Signal;HPM_P1;HPM_P2
2022/04/04 00:00:05;;;;;;;0.70;0.70;;;;;;;12.01;100.00;99764.38;5071873;28;20045;-82
2022/04/04 00:02:32;;;;;;;0.70;0.70;;;;;;;11.92;100.00;99760.50;5069953;28;20132;-82
2022/04/04 00:04:59;;;;;;;1.10;0.70;;;;;;;12.17;100.00;99752.97;5071343;28;20104;-82
2022/04/04 00:07:26;;;;;;;0.70;0.70;;;;;;;12.15;100.00;99758.31;5066747;28;20413;-82
2022/04/04 00:09:53;;;;;;;0.80;0.70;;;;;;;11.95;100.00;99748.97;5051145;28;20099;-82
2022/04/04 00:12:20;;;;;;;0.70;0.70;;;;;;;12.10;100.00;99744.63;5054215;28;20131;-82
2022/04/04 00:14:48;;;;;;;0.70;0.70;;;;;;;11.95;100.00;99755.09;5070917;28;20056;-82
2022/04/04 00:17:15;;;;;;;0.70;0.70;;;;;;;12.26;100.00;99742.75;5069666;28;20082;-82
2022/04/04 00:19:42;;;;;;;1.35;0.80;;;;;;;12.35;100.00;99743.97;5071848;28;20055;-82
2022/04/04 00:22:09;;;;;;;1.65;0.70;;;;;;;12.01;100.00;99697.94;5070370;28;20059;-83
2022/04/04 00:24:36;;;;;;;2.20;0.80;;;;;;;12.20;100.00;99711.66;5071505;28;20068;-81
2022/04/04 00:27:03;;;;;;;1.00;0.70;;;;;;;12.20;100.00;99702.91;5070689;28;20052;-82
2022/04/04 00:29:30;;;;;;;0.65;0.65;;;;;;;12.19;100.00;99727.47;5070577;28;20049;-82
2022/04/04 00:31:56;;;;;;;0.70;0.70;;;;;;;12.10;100.00;99674.63;5070604;28;20063;-82
2022/04/04 00:34:23;;;;;;;0.65;0.65;;;;;;;12.26;100.00;99729.63;5065542;28;20398;-82
2022/04/04 00:36:50;;;;;;;0.70;0.70;;;;;;;12.42;100.00;99711.16;5056028;28;20056;-83
2022/04/04 00:39:19;;;;;;;1.15;0.70;;;;;;;12.51;100.00;99728.97;5070899;28;20062;-82
2022/04/04 00:41:47;;;;;;;0.70;0.70;;;;;;;12.54;100.00;99725.31;5071845;28;20080;-82
2022/04/04 00:44:14;;;;;;;0.70;0.70;;;;;;;12.51;100.00;99720.25;5069353;28;20080;-82
2022/04/04 00:46:42;;;;;;;0.70;0.70;;;;;;;12.40;100.00;99722.72;5070245;28;20528;-81
2022/04/04 00:49:10;;;;;;;1.05;0.70;;;;;;;12.42;100.00;99723.47;5071640;28;20131;-82
2022/04/04 00:51:37;;;;;;;0.70;0.70;;;;;;;12.51;100.00;99705.34;5071867;28;20520;-81
2022/04/04 00:54:04;;;;;;;0.70;0.70;;;;;;;12.65;100.00;99704.47;5065498;28;20055;-81
2022/04/04 00:56:33;;;;;;;0.60;0.60;;;;;;;12.45;100.00;99697.84;5050617;28;20128;-82
2022/04/04 00:59:01;;;;;;;1.25;0.80;;;;;;;12.62;100.00;99706.47;5050336;28;20067;-82
2022/04/04 01:01:28;;;;;;;0.70;0.70;;;;;;;12.33;100.00;99701.25;5050273;28;20430;-81
2022/04/04 01:03:55;;;;;;;0.63;0.63;;;;;;;12.23;100.00;99694.84;5066939;28;20059;-83
2022/04/04 01:06:23;;;;;;;0.70;0.70;;;;;;;12.54;100.00;99693.81;5069024;28;20410;-82
2022/04/04 01:08:49;;;;;;;1.15;0.80;;;;;;;12.19;100.00;99685.50;5064523;28;20538;-82
2022/04/04 01:11:16;;;;;;;0.60;0.60;;;;;;;12.26;100.00;99669.28;5070389;28;20064;-82
2022/04/04 01:13:47;;;;;;;1.13;0.70;;;;;;;12.49;100.00;99683.59;5066083;28;20438;-82
2022/04/04 01:16:15;;;;;;;0.70;0.70;;;;;;;12.42;100.00;99663.91;5050450;28;20051;-82
2022/04/04 01:18:42;;;;;;;0.60;0.60;;;;;;;12.43;100.00;99673.50;5053134;28;20048;-82
2022/04/04 01:21:10;;;;;;;0.70;0.70;;;;;;;12.66;100.00;99661.53;5066069;28;20497;-82
2022/04/04 01:23:42;;;;;;;0.68;0.68;;;;;;;12.25;100.00;99651.00;5063241;28;20410;-82
2022/04/04 01:26:11;;;;;;;1.05;0.70;;;;;;;12.31;100.00;99642.75;5070927;28;20044;-82
2022/04/04 01:28:38;;;;;;;0.70;0.70;;;;;;;12.67;100.00;99654.50;5070884;28;20433;-82
2022/04/04 01:31:06;;;;;;;0.73;0.63;;;;;;;12.41;100.00;99650.88;5070494;28;20587;-82
2022/04/04 01:33:33;;;;;;;0.73;0.73;;;;;;;12.75;100.00;99628.59;5077331;28;20067;-82
2022/04/04 01:36:00;;;;;;;1.25;0.70;;;;;;;12.59;100.00;99635.75;5069993;28;20421;-82
2022/04/04 01:38:27;;;;;;;0.98;0.77;;;;;;;12.88;100.00;99628.63;5070544;28;20054;-82
2022/04/04 01:40:54;;;;;;;0.63;0.60;;;;;;;12.45;100.00;99610.38;5069932;28;20143;-82
2022/04/04 01:43:21;;;;;;;1.95;0.80;;;;;;;12.35;100.00;99597.81;5067906;28;20044;-81
2022/04/04 01:48:36;;;;;;;0.70;0.70;;;;;;;12.51;100.00;99602.09;5071661;28;20091;-81
2022/04/04 01:51:04;;;;;;;0.88;0.70;;;;;;;12.48;100.00;99589.16;5071126;28;20048;-82
2022/04/04 01:53:32;;;;;;;0.70;0.70;;;;;;;12.45;100.00;99576.25;5070101;28;20056;-82
2022/04/04 01:56:03;;;;;;;0.73;0.70;;;;;;;12.20;100.00;99561.19;5071139;28;20086;-83
2022/04/04 01:58:30;;;;;;;1.02;0.63;;;;;;;12.34;100.00;99563.78;5074662;28;20056;-82
2022/04/04 02:01:01;;;;;;;0.70;0.70;;;;;;;12.50;100.00;99569.78;5074510;28;20048;-83
2022/04/04 02:03:29;;;;;;;1.08;0.70;;;;;;;12.46;100.00;99563.00;5070098;28;20057;-83
2022/04/04 02:05:56;;;;;;;0.98;0.80;;;;;;;12.47;100.00;99559.47;5066646;28;20094;-82
2022/04/04 02:08:22;;;;;;;0.70;0.70;;;;;;;12.42;100.00;99539.69;5071056;28;20056;-82
2022/04/04 02:10:49;;;;;;;0.60;0.60;;;;;;;12.52;100.00;99556.56;5072888;28;20044;-82
2022/04/04 02:13:16;;;;;;;0.98;0.70;;;;;;;12.38;100.00;99518.06;5088885;28;20051;-86
2022/04/04 02:15:43;;;;;;;0.70;0.70;;;;;;;12.41;100.00;99540.63;5073789;28;20165;-87
2022/04/04 02:18:10;;;;;;;0.70;0.70;;;;;;;12.53;100.00;99545.91;5073770;28;20045;-85
2022/04/04 02:20:37;;;;;;;3.22;0.70;;;;;;;12.68;100.00;99536.22;5068201;28;20045;-82
2022/04/04 02:23:05;;;;;;;1.05;0.70;;;;;;;12.47;100.00;99554.22;5062764;28;20079;-82
2022/04/04 02:25:32;;;;;;;1.25;0.70;;;;;;;12.38;100.00;99506.69;5074277;28;20056;-83
2022/04/04 02:27:59;;;;;;;1.60;0.80;;;;;;;11.99;100.00;99479.44;5074360;28;20051;-82
2022/04/04 02:30:25;;;;;;;0.70;0.70;;;;;;;12.27;100.00;99518.75;5074402;28;20397;-82
2022/04/04 02:32:52;;;;;;;1.65;0.77;;;;;;;12.70;100.00;99551.88;5068825;28;20055;-83
2022/04/04 02:35:19;;;;;;;0.90;0.70;;;;;;;12.81;100.00;99554.63;5074410;28;20048;-82
2022/04/04 02:37:47;;;;;;;0.63;0.63;;;;;;;12.64;100.00;99532.13;5069873;28;20049;-82
2022/04/04 02:40:14;;;;;;;0.60;0.60;;;;;;;12.51;100.00;99524.19;5054499;28;20521;-83
2022/04/04 02:42:40;;;;;;;0.60;0.60;;;;;;;12.61;100.00;99513.94;5058377;28;20052;-82
2022/04/04 02:45:07;;;;;;;1.20;0.70;;;;;;;12.86;100.00;99536.78;5074066;28;20055;-83
2022/04/04 02:47:34;;;;;;;0.77;0.70;;;;;;;12.70;100.00;99528.25;5074403;28;20047;-83
2022/04/04 02:50:02;;;;;;;1.83;0.80;;;;;;;12.93;100.00;99512.75;5072643;28;20395;-82
2022/04/04 02:52:29;;;;;;;0.80;0.70;;;;;;;12.88;100.00;99510.44;5070260;28;20808;-82
2022/04/04 02:54:55;;;;;;;0.60;0.60;;;;;;;12.61;100.00;99527.06;5072382;28;20044;-82
2022/04/04 02:57:23;;;;;;;0.93;0.70;;;;;;;12.57;100.00;99519.47;5059004;28;20051;-82
2022/04/04 02:59:49;;;;;;;1.00;0.70;;;;;;;12.65;100.00;99527.72;5067855;28;20060;-83
2022/04/04 03:02:16;;;;;;;2.03;0.80;;;;;;;12.53;100.00;99513.59;5071452;28;20194;-83
2022/04/04 03:04:43;;;;;;;1.55;0.77;;;;;;;12.62;100.00;99505.09;5072127;28;20048;-83
2022/04/04 03:07:10;;;;;;;0.68;0.68;;;;;;;12.58;100.00;99492.28;5068298;28;20055;-83
2022/04/04 03:09:37;;;;;;;0.70;0.70;;;;;;;12.38;100.00;99491.81;5051085;28;20049;-84
2022/04/04 03:12:06;;;;;;;0.68;0.68;;;;;;;12.61;100.00;99474.56;5065535;28;20084;-83
2022/04/04 03:14:33;;;;;;;1.48;0.70;;;;;;;12.26;100.00;99461.09;5071288;28;20347;-83
2022/04/04 03:16:59;;;;;;;0.70;0.70;;;;;;;12.18;100.00;99431.88;5072349;28;20066;-83
2022/04/04 03:19:27;;;;;;;0.70;0.70;;;;;;;12.45;100.00;99473.88;5072506;28;20053;-83
2022/04/04 03:21:56;;;;;;;0.65;0.65;;;;;;;12.78;100.00;99476.03;5071383;28;20409;-83
2022/04/04 03:24:23;;;;;;;1.02;0.70;;;;;;;12.45;100.00;99477.34;5071583;28;20110;-83
2022/04/04 03:26:50;;;;;;;0.70;0.70;;;;;;;12.44;100.00;99478.28;5068191;28;20076;-83
2022/04/04 03:29:18;;;;;;;0.70;0.70;;;;;;;12.50;100.00;99470.00;5053277;28;20396;-83
2022/04/04 03:31:45;;;;;;;0.60;0.60;;;;;;;12.21;100.00;99468.44;5052998;28;20427;-82
2022/04/04 03:34:11;;;;;;;1.38;0.70;;;;;;;12.45;100.00;99472.09;5066299;28;20057;-82
2022/04/04 03:36:39;;;;;;;1.17;0.60;;;;;;;12.54;100.00;99442.59;5051644;28;20051;-83
2022/04/04 03:39:05;;;;;;;0.60;0.60;;;;;;;12.44;100.00;99453.81;5051748;28;20704;-83
2022/04/04 03:41:32;;;;;;;0.60;0.60;;;;;;;12.34;100.00;99445.69;5051359;28;20136;-84
2022/04/04 03:43:59;;;;;;;0.60;0.60;;;;;;;12.75;100.00;99446.50;5069889;28;20045;-83
2022/04/04 03:46:26;;;;;;;0.70;0.70;;;;;;;12.98;100.00;99452.84;5063999;28;20543;-83
2022/04/04 03:48:52;;;;;;;0.60;0.60;;;;;;;12.54;100.00;99421.59;5051668;28;20053;-83
2022/04/04 03:51:19;;;;;;;0.75;0.70;;;;;;;12.12;100.00;99412.97;5052534;28;20049;-84
2022/04/04 03:53:46;;;;;;;0.60;0.60;;;;;;;12.51;100.00;99432.28;5066139;28;20056;-84
2022/04/04 03:56:13;;;;;;;0.68;0.68;;;;;;;12.61;100.00;99431.69;5056959;28;20060;-84
2022/04/04 03:58:40;;;;;;;0.60;0.60;;;;;;;12.49;100.00;99426.31;5071988;28;20493;-83
2022/04/04 04:01:07;;;;;;;0.98;0.60;;;;;;;12.47;100.00;99395.88;5072676;28;20053;-84
2022/04/04 04:03:35;;;;;;;0.60;0.60;;;;;;;12.50;100.00;99424.50;5069998;28;20055;-83
2022/04/04 04:06:11;;;;;;;0.70;0.70;;;;;;;12.43;100.00;99387.34;5071416;28;20399;-83
2022/04/04 04:08:43;;;;;;;0.70;0.70;;;;;;;12.65;100.00;99405.13;5070985;28;20479;-83
2022/04/04 04:11:13;;;;;;;0.70;0.70;;;;;;;12.62;100.00;99397.44;5070537;28;20395;-83
2022/04/04 04:13:45;;;;;;;0.82;0.70;;;;;;;12.90;100.00;99406.09;5071384;28;20078;-83
2022/04/04 04:16:14;;;;;;;0.65;0.65;;;;;;;12.40;100.00;99403.31;5072730;28;20066;-83
2022/04/04 04:18:42;;;;;;;0.70;0.70;;;;;;;12.45;100.00;99405.63;5069825;28;20127;-82
2022/04/04 04:21:11;;;;;;;1.15;0.70;;;;;;;12.50;100.00;99408.75;5071777;28;20132;-82
2022/04/04 04:23:42;;;;;;;0.70;0.70;;;;;;;12.31;100.00;99403.91;5066259;28;20398;-82
2022/04/04 04:26:12;;;;;;;0.60;0.60;;;;;;;12.71;100.00;99393.34;5050997;28;20060;-83
2022/04/04 04:28:44;;;;;;;0.70;0.70;;;;;;;12.33;100.00;99415.97;5051569;28;20072;-83
2022/04/04 04:31:11;;;;;;;0.70;0.70;;;;;;;12.52;100.00;99409.53;5051373;28;20479;-83
2022/04/04 04:33:38;;;;;;;0.82;0.70;;;;;;;12.34;100.00;99382.69;5064000;28;20059;-84
2022/04/04 04:36:06;;;;;;;1.27;0.70;;;;;;;12.40;100.00;99373.59;5071163;28;20485;-83
2022/04/04 04:38:34;;;;;;;0.60;0.60;;;;;;;12.70;100.00;99412.69;5052831;28;20558;-83
2022/04/04 04:41:02;;;;;;;0.60;0.60;;;;;;;12.69;100.00;99395.25;5051458;28;20048;-83
2022/04/04 04:43:29;;;;;;;0.68;0.68;;;;;;;12.31;100.00;99398.66;5061718;28;20055;-84
2022/04/04 04:45:55;;;;;;;0.80;0.70;;;;;;;12.62;100.00;99401.84;5070663;28;20072;-83
2022/04/04 04:48:22;;;;;;;1.02;0.70;;;;;;;12.63;100.00;99406.19;5070362;28;20054;-84
2022/04/04 04:50:49;;;;;;;0.93;0.70;;;;;;;12.82;100.00;99379.47;5070475;28;20486;-83
2022/04/04 04:53:16;;;;;;;0.70;0.70;;;;;;;12.94;100.00;99370.75;5066025;28;20055;-83
2022/04/04 04:55:43;;;;;;;0.60;0.60;;;;;;;12.70;100.00;99381.19;5061753;28;20398;-83
2022/04/04 04:58:10;;;;;;;0.60;0.60;;;;;;;12.91;100.00;99376.25;5070300;28;20049;-84
2022/04/04 05:00:37;;;;;;;0.60;0.60;;;;;;;12.78;100.00;99368.34;5064662;28;20059;-84
2022/04/04 05:05:50;;;;;;;0.68;0.68;;;;;;;12.54;100.00;99381.38;5060481;28;20049;-84
2022/04/04 05:08:18;;;;;;;0.63;0.63;;;;;;;12.61;100.00;99366.88;5053487;28;20071;-84
2022/04/04 05:10:45;;;;;;;0.70;0.70;;;;;;;12.62;100.00;99381.69;5058446;28;20052;-84
2022/04/04 05:13:13;;;;;;;0.70;0.70;;;;;;;12.70;100.00;99379.38;5065685;28;20044;-84
2022/04/04 05:15:40;;;;;;;0.70;0.70;;;;;;;12.50;100.00;99388.63;5069907;28;20139;-85
2022/04/04 05:18:07;;;;;;;0.60;0.60;;;;;;;12.51;100.00;99369.28;5053796;28;20049;-83
2022/04/04 05:20:34;;;;;;;0.82;0.70;;;;;;;12.61;100.00;99377.41;5071223;28;20457;-84
2022/04/04 05:23:01;;;;;;;0.60;0.60;;;;;;;12.46;100.00;99378.41;5068688;28;20554;-83
2022/04/04 05:25:28;;;;;;;0.60;0.60;;;;;;;12.21;100.00;99376.59;5069939;28;20059;-83
2022/04/04 05:27:57;;;;;;;1.02;0.63;;;;;;;12.17;100.00;99351.50;5071554;28;20044;-83
2022/04/04 05:30:25;;;;;;;0.98;0.70;;;;;;;12.82;100.00;99361.09;5070307;28;20055;-83
2022/04/04 05:32:51;;;;;;;0.60;0.60;;;;;;;12.67;100.00;99376.13;5067071;28;20383;-83
2022/04/04 05:35:19;;;;;;;0.60;0.60;;;;;;;12.68;100.00;99383.06;5074761;28;20122;-83
2022/04/04 05:37:46;;;;;;;0.70;0.60;;;;;;;12.50;100.00;99366.75;5072569;28;20064;-83
2022/04/04 05:40:14;;;;;;;0.70;0.70;;;;;;;12.52;100.00;99373.59;5075594;28;20714;-83
2022/04/04 05:42:41;;;;;;;3.55;0.70;;;;;;;12.57;100.00;99370.69;5073316;28;20045;-83
2022/04/04 05:45:09;;;;;;;0.70;0.70;;;;;;;12.81;100.00;99362.91;5072705;28;20056;-82
2022/04/04 05:47:36;;;;;;;1.10;0.70;;;;;;;12.49;100.00;99351.97;5074285;28;20036;-82
2022/04/04 05:50:04;;;;;;;0.70;0.70;;;;;;;12.39;100.00;99364.03;5072995;28;20067;-83
2022/04/04 05:52:31;;;;;;;0.70;0.70;;;;;;;12.65;100.00;99343.88;5070475;28;20084;-83
2022/04/04 05:55:06;;;;;;;0.93;0.70;;;;;;;12.53;100.00;99343.75;5062197;28;20055;-83
2022/04/04 05:57:39;;;;;;;0.60;0.60;;;;;;;12.57;100.00;99373.31;5065670;28;20052;-82
2022/04/04 06:00:13;;;;;;;0.88;0.70;;;;;;;12.39;100.00;99364.03;5062683;28;20111;-83
2022/04/04 06:02:42;;;;;;;0.60;0.60;;;;;;;12.52;100.00;99355.22;5068489;28;20041;-82
2022/04/04 06:05:11;;;;;;;1.02;0.60;;;;;;;12.43;100.00;99350.59;5066786;28;20045;-87
2022/04/04 06:07:38;;;;;;;0.60;0.60;;;;;;;12.34;100.00;99361.69;5065129;28;20048;-87
2022/04/04 06:10:09;;;;;;;0.60;0.60;;;;;;;12.46;100.00;99354.78;5065555;28;20059;-82
2022/04/04 06:12:40;;;;;;;0.60;0.60;;;;;;;12.68;100.00;99352.41;5067953;28;20140;-83
2022/04/04 06:15:07;;;;;;;0.70;0.70;;;;;;;12.35;100.00;99300.41;5070157;28;20053;-84
2022/04/04 06:17:34;;;;;;;0.82;0.70;;;;;;;12.10;100.00;99327.44;5061979;28;20128;-84
2022/04/04 06:20:03;;;;;;;0.68;0.60;;;;;;;12.55;100.00;99333.16;5063638;28;20053;-84
2022/04/04 06:22:37;;;;;;;1.27;0.70;;;;;;;12.81;100.00;99344.50;5069078;28;20482;-83
2022/04/04 06:25:08;;;;;;;0.60;0.60;;;;;;;12.71;100.00;99360.06;5069818;28;20060;-84
2022/04/04 06:27:36;;;;;;;0.60;0.60;;;;;;;12.07;100.00;99359.13;5088369;28;20135;-84
2022/04/04 06:30:04;;;;;;;1.95;0.80;;;;;;;12.11;100.00;99323.88;5069740;28;20053;-83
2022/04/04 06:32:31;;;;;;;1.15;0.70;;;;;;;12.53;100.00;99346.38;5058231;28;20106;-85
2022/04/04 06:34:57;;;;;;;0.70;0.70;;;;;;;12.60;100.00;99332.84;5072986;28;20403;-84
2022/04/04 06:37:24;;;;;;;0.95;0.80;;;;;;;12.35;100.00;99340.59;5074593;28;20398;-84
2022/04/04 06:39:51;;;;;;;0.82;0.68;;;;;;;12.59;100.00;99331.16;5073835;28;20055;-84
2022/04/04 06:42:19;;;;;;;0.98;0.70;;;;;;;12.13;100.00;99322.00;5073121;28;20044;-85
2022/04/04 06:44:46;;;;;;;0.68;0.68;;;;;;;12.42;100.00;99321.81;5074093;28;20052;-85
2022/04/04 06:47:13;;;;;;;0.70;0.70;;;;;;;12.03;100.00;99306.03;5074483;28;20048;-84
2022/04/04 06:49:40;;;;;;;0.70;0.70;;;;;;;12.58;100.00;99334.75;5072887;28;20106;-84
2022/04/04 06:52:07;;;;;;;0.85;0.70;;;;;;;12.24;100.00;99335.25;5073929;28;20060;-85
2022/04/04 06:54:34;;;;;;;0.70;0.70;;;;;;;12.12;100.00;99320.31;5061530;28;20045;-84
2022/04/04 06:57:01;;;;;;;0.90;0.77;;;;;;;12.22;100.00;99366.00;5066331;28;20140;-84
2022/04/04 06:59:29;;;;;;;0.82;0.70;;;;;;;11.95;100.00;99330.16;5074627;28;20492;-84
2022/04/04 07:01:56;;;;;;;1.15;0.70;;;;;;;12.08;100.00;99347.69;5073786;28;20469;-85
2022/04/04 07:04:23;;;;;;;0.93;0.70;;;;;;;12.56;100.00;99347.97;5072590;28;20098;-84
2022/04/04 07:06:50;;;;;;;0.60;0.60;;;;;;;12.47;100.00;99346.00;5073867;28;20048;-84
2022/04/04 07:09:16;;;;;;;0.60;0.60;;;;;;;12.28;100.00;99346.38;5072851;28;20051;-84
2022/04/04 07:11:43;;;;;;;2.25;0.90;;;;;;;11.86;100.00;99370.03;5073684;28;20482;-85
2022/04/04 07:14:10;;;;;;;0.80;0.70;;;;;;;12.15;100.00;99386.53;5067607;28;20052;-85
2022/04/04 07:16:37;;;;;;;0.60;0.60;;;;;;;11.84;100.00;99344.88;5053570;28;20406;-84
2022/04/04 07:19:05;;;;;;;1.20;0.70;;;;;;;12.06;100.00;99383.69;5066713;28;20074;-85
2022/04/04 07:21:31;;;;;;;1.10;0.80;;;;;;;11.89;100.00;99350.66;5073832;28;20501;-84
2022/04/04 07:23:59;;;;;;;0.85;0.70;;;;;;;12.32;100.00;99381.97;5066472;28;20053;-83
2022/04/04 07:26:26;;;;;;;2.60;0.93;;;;;;;11.86;100.00;99356.91;5052433;28;20128;-84
2022/04/04 07:28:53;;;;;;;1.75;0.70;;;;;;;11.75;100.00;99372.53;5053782;28;20844;-84
2022/04/04 07:31:20;;;;;;;0.85;0.70;;;;;;;12.78;100.00;99392.00;5052325;28;20099;-83
2022/04/04 07:33:47;;;;;;;1.30;0.73;;;;;;;12.48;100.00;99345.88;5079990;28;20063;-84
2022/04/04 07:36:14;;;;;;;1.55;0.80;;;;;;;13.09;100.00;99409.13;5068835;28;20139;-85
2022/04/04 07:38:41;;;;;;;1.13;0.80;;;;;;;13.02;100.00;99367.63;5053208;28;20056;-83
2022/04/04 07:41:08;;;;;;;0.70;0.70;;;;;;;12.91;100.00;99353.44;5053112;28;20135;-84
2022/04/04 07:43:35;;;;;;;1.73;0.80;;;;;;;12.92;100.00;99362.16;5066131;28;20055;-84
2022/04/04 07:46:02;;;;;;;0.73;0.70;;;;;;;13.12;100.00;99426.47;5072008;28;20080;-84
2022/04/04 07:48:32;;;;;;;1.13;0.80;;;;;;;13.31;100.00;99386.63;5072106;28;20047;-84
2022/04/04 07:50:59;;;;;;;1.00;0.80;;;;;;;13.45;100.00;99406.69;5073792;28;20096;-84
2022/04/04 07:53:26;;;;;;;1.65;0.80;;;;;;;13.93;100.00;99377.78;5067412;28;20075;-85
2022/04/04 07:55:52;;;;;;;0.95;0.70;;;;;;;13.22;100.00;99351.28;5052868;28;20051;-84
2022/04/04 07:58:20;;;;;;;0.70;0.70;;;;;;;13.84;100.00;99378.47;5060728;28;20595;-85
2022/04/04 08:00:47;;;;;;;1.75;0.80;;;;;;;13.25;100.00;99373.91;5053100;28;20418;-87
2022/04/04 08:03:14;;;;;;;1.08;0.75;;;;;;;13.41;100.00;99406.06;5062607;28;20051;-86
2022/04/04 08:05:41;;;;;;;1.13;0.75;;;;;;;13.31;100.00;99386.63;5064822;28;20080;-86
2022/04/04 08:08:08;;;;;;;1.13;0.75;;;;;;;13.45;100.00;99436.44;5068365;28;20063;-87
2022/04/04 08:10:35;;;;;;;1.67;0.70;;;;;;;12.95;100.00;99419.75;5052458;28;20132;-86
2022/04/04 08:13:02;;;;;;;2.20;0.80;;;;;;;13.01;100.00;99405.34;5067277;28;20074;-86
2022/04/04 08:15:29;;;;;;;3.20;0.77;;;;;;;13.06;100.00;99434.78;5068028;28;20064;-86
2022/04/04 08:17:56;;;;;;;3.13;0.93;;;;;;;12.96;100.00;99433.72;5057937;28;20078;-86
2022/04/04 08:20:23;;;;;;;2.58;0.80;;;;;;;12.97;100.00;99424.91;5072702;28;20076;-86
2022/04/04 08:22:50;;;;;;;1.25;0.70;;;;;;;12.73;100.00;99418.59;5071057;28;20048;-86
2022/04/04 08:25:17;;;;;;;1.48;0.80;;;;;;;12.50;100.00;99399.13;5071838;28;20650;-84
2022/04/04 08:27:46;;;;;;;1.20;0.70;;;;;;;12.26;100.00;99443.56;5072500;28;20063;-84
2022/04/04 08:30:15;;;;;;;2.63;0.80;;;;;;;12.35;100.00;99450.84;5071569;28;20524;-84
2022/04/04 08:32:42;;;;;;;2.80;0.95;;;;;;;12.29;100.00;99451.25;5071185;28;20135;-84
2022/04/04 08:35:12;;;;;;;3.55;0.90;;;;;;;12.77;100.00;99457.78;5071876;28;20048;-85
2022/04/04 08:37:41;;;;;;;1.33;0.80;;;;;;;13.03;100.00;99469.13;5061031;28;20076;-84
2022/04/04 08:40:10;;;;;;;5.78;1.33;;;;;;;12.93;100.00;99444.44;5070389;28;20060;-83
2022/04/04 08:42:38;;;;;;;5.10;1.10;;;;;;;12.69;100.00;99424.97;5069765;28;20055;-85
2022/04/04 08:45:06;;;;;;;5.15;1.38;;;;;;;12.69;100.00;99424.13;5070847;28;20139;-84
2022/04/04 08:47:33;;;;;;;5.03;1.20;;;;;;;12.50;100.00;99400.88;5070868;28;20079;-83
2022/04/04 08:50:01;;;;;;;4.90;0.90;;;;;;;13.36;100.00;99433.63;5072024;28;20072;-84
2022/04/04 08:52:28;;;;;;;5.95;1.08;;;;;;;12.95;100.00;99453.91;5068845;28;20051;-85
2022/04/04 08:54:55;;;;;;;4.03;1.10;;;;;;;13.24;100.00;99454.53;5058305;28;20079;-85
2022/04/04 08:57:22;;;;;;;5.97;1.17;;;;;;;13.63;100.00;99421.19;5069756;28;20084;-85
2022/04/04 08:59:48;;;;;;;5.55;1.10;;;;;;;13.55;100.00;99393.75;5069310;28;20048;-83
2022/04/04 09:02:15;;;;;;;7.95;1.20;;;;;;;13.22;100.00;99422.25;5068622;28;20132;-85
2022/04/04 09:04:42;;;;;;;2.45;1.02;;;;;;;13.06;100.00;99411.13;5071284;28;20139;-85
2022/04/04 09:07:11;;;;;;;5.50;1.13;;;;;;;13.56;100.00;99466.41;5074683;28;20131;-85
2022/04/04 09:09:42;;;;;;;5.72;1.35;;;;;;;12.88;100.00;99432.44;5076122;28;20051;-85
2022/04/04 09:12:09;;;;;;;5.88;1.30;;;;;;;13.77;100.00;99462.25;5074756;28;20558;-84
2022/04/04 09:14:51;;;;;;;6.95;1.27;;;;;;;13.62;100.00;99440.53;5074928;28;20132;-84
2022/04/04 09:17:21;;;;;;;6.88;1.48;;;;;;;13.59;98.52;99460.94;5075882;28;20060;-85
2022/04/04 09:19:48;;;;;;;8.55;1.27;;;;;;;13.93;96.65;99426.97;5074667;28;20052;-84
2022/04/04 09:22:20;;;;;;;4.43;1.10;;;;;;;13.98;95.40;99424.84;5068842;28;20048;-86
2022/04/04 09:25:02;;;;;;;4.95;1.00;;;;;;;13.93;97.87;99433.06;5075448;28;20139;-84
2022/04/04 09:27:36;;;;;;;5.88;1.35;;;;;;;13.99;95.80;99398.41;5071254;28;20079;-84
2022/04/04 09:30:07;;;;;;;7.88;1.35;;;;;;;13.59;95.78;99443.38;5068297;28;20052;-83
2022/04/04 09:32:38;;;;;;;5.15;0.98;;;;;;;13.42;99.91;99415.66;5074103;28;20131;-84
2022/04/04 09:35:10;;;;;;;4.72;1.33;;;;;;;14.31;98.30;99474.19;5074602;28;20474;-84
2022/04/04 09:37:38;;;;;;;6.27;1.40;;;;;;;14.61;98.75;99438.66;5064238;28;20048;-84
2022/04/04 09:40:16;;;;;;;5.10;1.38;;;;;;;14.59;96.58;99478.28;5056281;28;20094;-84
2022/04/04 09:42:57;;;;;;;3.10;0.90;;;;;;;13.93;99.24;99479.59;5073937;28;20048;-84
2022/04/04 09:45:28;;;;;;;5.55;1.00;;;;;;;13.83;100.00;99437.31;5074463;28;20127;-84
2022/04/04 09:47:58;;;;;;;4.82;1.08;;;;;;;14.03;100.00;99483.25;5074982;28;20140;-84
2022/04/04 09:50:30;;;;;;;4.93;1.10;;;;;;;14.30;100.00;99495.34;5075285;28;20383;-85
2022/04/04 09:52:59;;;;;;;3.20;1.00;;;;;;;14.50;100.00;99472.81;5072847;28;20052;-80
2022/04/04 09:55:44;;;;;;;4.93;1.10;;;;;;;13.44;100.00;99454.97;5059196;28;20079;-82
2022/04/04 09:58:15;;;;;;;7.03;1.15;;;;;;;14.42;100.00;99481.28;5055286;28;20358;-82
2022/04/04 10:00:44;;;;;;;4.35;1.10;;;;;;;13.68;100.00;99484.78;5072247;28;20077;-82
2022/04/04 10:03:12;;;;;;;2.55;0.95;;;;;;;14.32;100.00;99496.09;5082913;28;20055;-83
2022/04/04 10:05:42;;;;;;;3.47;1.15;;;;;;;13.85;100.00;99475.72;5074902;28;20054;-83
2022/04/04 10:08:13;;;;;;;4.03;1.10;;;;;;;13.58;100.00;99475.88;5075231;28;20094;-83
2022/04/04 10:10:41;;;;;;;7.70;1.10;;;;;;;13.34;100.00;99473.16;5074729;28;20040;-83
2022/04/04 10:13:09;;;;;;;3.78;1.20;;;;;;;12.80;99.73;99412.91;5068541;28;20658;-83
2022/04/04 10:15:37;;;;;;;4.40;1.15;;;;;;;13.37;99.00;99475.59;5055178;28;20524;-83
2022/04/04 10:18:05;;;;;;;5.43;1.33;;;;;;;13.70;98.82;99444.41;5052760;28;20049;-82
2022/04/04 10:20:33;;;;;;;5.40;1.17;;;;;;;13.81;95.54;99460.25;5057836;28;20072;-83
2022/04/04 10:23:02;;;;;;;5.88;1.05;;;;;;;13.36;99.84;99471.28;5072549;28;20088;-82
2022/04/04 10:25:31;;;;;;;3.63;1.20;;;;;;;13.17;99.29;99478.72;5073545;28;20407;-82
2022/04/04 10:27:59;;;;;;;3.72;1.30;;;;;;;13.95;96.37;99488.19;5072712;28;20052;-82
2022/04/04 10:30:40;;;;;;;5.60;1.10;;;;;;;13.84;98.10;99525.81;5068125;28;20083;-82
2022/04/04 10:33:36;;;;;;;3.95;1.30;;;;;;;13.72;100.00;99524.88;5067709;28;20129;-82
2022/04/04 10:36:10;;;;;;;6.32;1.20;;;;;;;13.48;100.00;99541.41;5057527;28;20053;-82
2022/04/04 10:38:45;;;;;;;3.90;0.85;;;;;;;13.93;100.00;99540.09;5054669;28;20048;-82
2022/04/04 10:41:21;;;;;;;6.97;1.08;;;;;;;13.64;100.00;99524.59;5068459;28;20048;-83
2022/04/04 10:43:52;;;;;;;8.35;1.38;;;;;;;13.56;100.00;99537.41;5060998;28;20455;-83
2022/04/04 10:46:20;;;;;;;5.00;1.42;;;;;;;13.84;100.00;99541.59;5083994;28;20048;-83
2022/04/04 10:49:08;;;;;;;15.63;1.92;;;;;;;13.90;100.00;99538.53;5072379;28;20044;-82
2022/04/04 10:51:36;;;;;;;5.35;1.23;;;;;;;13.85;100.00;99488.03;5072820;28;20095;-83
2022/04/04 10:54:04;;;;;;;6.50;1.40;;;;;;;13.72;100.00;99545.06;5070881;28;20045;-83
2022/04/04 10:56:33;;;;;;;6.30;1.25;;;;;;;13.32;100.00;99524.19;5073068;28;20098;-82
2022/04/04 10:59:16;;;;;;;5.20;1.30;;;;;;;14.07;100.00;99544.41;5072406;28;20453;-82
2022/04/04 11:01:45;;;;;;;6.13;0.98;;;;;;;13.67;100.00;99561.19;5072045;28;20059;-82
2022/04/04 11:04:27;;;;;;;3.97;1.10;;;;;;;13.72;100.00;99548.53;5072583;28;20048;-82
2022/04/04 11:10:06;;;;;;;4.45;1.10;;;;;;;13.81;100.00;99544.44;5053066;28;20072;-82
2022/04/04 11:12:55;;;;;;;4.82;1.10;;;;;;;13.27;100.00;99580.47;5049778;28;20543;-82
2022/04/04 11:15:47;;;;;;;4.10;1.13;;;;;;;13.53;100.00;99575.28;5063593;28;20044;-83
2022/04/04 11:18:15;;;;;;;4.75;1.08;;;;;;;13.37;100.00;99578.13;5071681;28;20135;-82
2022/04/04 11:20:50;;;;;;;5.65;1.10;;;;;;;13.85;100.00;99570.44;5072274;28;20102;-82
2022/04/04 11:23:17;;;;;;;4.53;1.08;;;;;;;13.65;100.00;99523.63;5069268;28;20075;-83
2022/04/04 11:25:52;;;;;;;3.50;0.98;;;;;;;13.82;100.00;99570.63;5071296;28;20131;-82
2022/04/04 11:28:32;;;;;;;5.57;1.10;;;;;;;13.70;100.00;99550.44;5073291;28;20102;-83
2022/04/04 11:31:11;;;;;;;3.95;1.38;;;;;;;13.10;100.00;99531.69;5071666;28;20048;-83
2022/04/04 11:34:12;;;;;;;3.00;0.90;;;;;;;13.45;100.00;99609.97;5066538;28;20049;-83
2022/04/04 11:36:40;;;;;;;6.53;1.00;;;;;;;13.74;100.00;99548.44;5055682;28;20045;-83
2022/04/04 11:39:08;;;;;;;4.57;1.00;;;;;;;13.81;100.00;99524.25;5051396;28;20045;-83
2022/04/04 11:41:46;;;;;;;4.50;1.15;;;;;;;14.03;100.00;99563.03;5052213;28;20053;-82